Time;durP1;ratioP1;P1;durP2;ratioP2;P2;SDS_P1;SDS_P2;PMS_P1;PMS_P2;Temp;Humidity;BMP_temperature;BMP_pressure;BME280_temperature;BME280_humidity;BME280_pressure;Samples;Min_cycle;Max_cycle;Signal;HPM_P1;HPM_P2
2022/03/30 00:01:00;;;;;;;33.50;16.33;;;5.30;99.90;;;;;;5050789;28;20051;-81
2022/03/30 00:03:26;;;;;;;28.08;16.48;;;5.30;99.90;;;;;;5051626;28;20044;-82
2022/03/30 00:05:52;;;;;;;31.67;16.25;;;5.20;99.90;;;;;;5068528;28;20511;-82
2022/03/30 00:08:18;;;;;;;28.85;16.40;;;5.20;99.90;;;;;;5067404;28;20132;-81
2022/03/30 00:10:44;;;;;;;28.67;17.35;;;5.10;99.90;;;;;;5051435;28;20488;-81
2022/03/30 00:13:09;;;;;;;31.45;16.10;;;5.10;99.90;;;;;;5051304;28;20044;-82
2022/03/30 00:15:35;;;;;;;31.58;17.23;;;5.20;99.90;;;;;;5051389;28;20044;-82
2022/03/30 00:18:01;;;;;;;30.48;16.65;;;5.20;99.90;;;;;;5069416;28;20090;-82
2022/03/30 00:20:26;;;;;;;33.10;16.77;;;5.20;99.90;;;;;;5050798;28;20037;-82
2022/03/30 00:22:52;;;;;;;25.40;15.45;;;5.20;99.90;;;;;;5068367;28;20048;-81
2022/03/30 00:25:18;;;;;;;29.85;16.45;;;5.20;99.90;;;;;;5067754;28;20044;-81
2022/03/30 00:27:46;;;;;;;31.13;17.25;;;5.20;99.90;;;;;;5069353;28;20067;-81
2022/03/30 00:30:14;;;;;;;29.23;16.02;;;5.20;99.90;;;;;;5050183;28;20051;-81
2022/03/30 00:32:40;;;;;;;33.50;17.40;;;5.10;99.90;;;;;;5069332;28;20110;-81
2022/03/30 00:35:07;;;;;;;33.58;17.17;;;5.10;99.90;;;;;;5068458;28;20052;-81
2022/03/30 00:37:34;;;;;;;31.08;15.93;;;5.00;99.90;;;;;;5050755;28;20136;-81
2022/03/30 00:40:00;;;;;;;33.92;17.52;;;5.00;99.90;;;;;;5067215;28;20062;-81
2022/03/30 00:42:25;;;;;;;36.30;17.98;;;4.90;99.90;;;;;;5067601;28;20036;-81
2022/03/30 00:44:52;;;;;;;30.75;15.88;;;4.60;99.90;;;;;;5067068;28;20051;-81
2022/03/30 00:47:24;;;;;;;34.65;17.33;;;4.70;99.90;;;;;;5068905;28;20041;-81
2022/03/30 00:49:51;;;;;;;33.70;16.77;;;4.70;99.90;;;;;;5050602;28;20039;-81
2022/03/30 00:52:17;;;;;;;39.33;17.40;;;4.70;99.90;;;;;;5068329;28;20049;-80
2022/03/30 00:54:46;;;;;;;40.05;15.77;;;4.60;99.90;;;;;;5067748;28;20055;-82
2022/03/30 00:57:14;;;;;;;35.28;16.70;;;4.60;99.90;;;;;;5066614;28;20044;-81
2022/03/30 00:59:41;;;;;;;32.00;15.20;;;4.50;99.90;;;;;;5068469;28;20190;-81
2022/03/30 01:02:07;;;;;;;45.05;16.40;;;4.50;99.90;;;;;;5050157;28;20128;-83
2022/03/30 01:04:33;;;;;;;32.15;15.23;;;6.20;99.90;;;;;;5066807;28;20044;-81
2022/03/30 01:06:59;;;;;;;36.40;15.65;;;4.60;99.90;;;;;;5066738;28;20044;-81
2022/03/30 01:09:25;;;;;;;33.45;14.73;;;4.70;99.90;;;;;;5050652;28;20048;-82
2022/03/30 01:11:53;;;;;;;29.70;15.88;;;4.80;99.90;;;;;;5066684;28;20056;-82
2022/03/30 01:14:19;;;;;;;37.35;15.68;;;4.80;99.90;;;;;;5050846;28;20505;-81
2022/03/30 01:16:48;;;;;;;35.13;15.50;;;6.00;99.90;;;;;;5068561;28;20036;-81
2022/03/30 01:19:14;;;;;;;27.65;13.38;;;4.80;99.90;;;;;;5066447;28;20049;-81
2022/03/30 01:21:41;;;;;;;31.58;15.20;;;4.80;99.90;;;;;;5067523;28;20129;-81
2022/03/30 01:24:08;;;;;;;28.85;14.30;;;4.80;99.90;;;;;;5051403;28;20037;-81
2022/03/30 01:26:35;;;;;;;29.63;14.95;;;5.30;99.90;;;;;;5055533;28;20395;-81
2022/03/30 01:29:01;;;;;;;30.83;14.32;;;4.80;99.90;;;;;;5071803;28;20053;-82
2022/03/30 01:34:10;;;;;;;27.35;15.10;;;4.80;99.90;;;;;;5065581;28;20060;-83
2022/03/30 01:36:36;;;;;;;26.92;14.93;;;4.80;99.90;;;;;;5068286;28;20071;-81
2022/03/30 01:39:03;;;;;;;29.08;14.52;;;4.90;99.90;;;;;;5066567;28;20115;-81
2022/03/30 01:41:29;;;;;;;28.63;15.02;;;5.00;99.90;;;;;;5049434;28;20173;-82
2022/03/30 01:43:56;;;;;;;26.95;13.98;;;5.00;99.90;;;;;;5066682;28;20124;-81
2022/03/30 01:46:22;;;;;;;27.00;14.18;;;5.10;99.90;;;;;;5066445;28;20056;-81
2022/03/30 01:48:48;;;;;;;27.45;15.50;;;5.10;99.90;;;;;;5067550;28;20491;-81
2022/03/30 01:51:14;;;;;;;32.13;14.68;;;5.10;99.90;;;;;;5049550;28;20049;-82
2022/03/30 01:53:40;;;;;;;30.35;16.17;;;5.20;99.90;;;;;;5067664;28;20044;-82
2022/03/30 01:56:06;;;;;;;37.30;15.57;;;5.10;99.90;;;;;;5067782;28;20045;-82
2022/03/30 01:58:31;;;;;;;30.17;15.60;;;5.10;99.90;;;;;;5068629;28;20033;-81
2022/03/30 02:00:57;;;;;;;29.00;15.70;;;4.50;99.90;;;;;;5066730;28;20114;-81
2022/03/30 02:03:25;;;;;;;34.92;15.80;;;4.90;99.90;;;;;;5066704;28;20431;-82
2022/03/30 02:05:52;;;;;;;29.13;14.82;;;5.10;99.90;;;;;;5068122;28;20041;-83
2022/03/30 02:08:18;;;;;;;30.83;15.23;;;6.70;99.90;;;;;;5067146;28;20044;-82
2022/03/30 02:10:44;;;;;;;30.20;14.32;;;6.20;99.90;;;;;;5066651;28;20484;-81
2022/03/30 02:13:10;;;;;;;29.23;14.43;;;4.70;99.90;;;;;;5067886;28;20051;-81
2022/03/30 02:15:36;;;;;;;29.15;14.35;;;4.50;99.90;;;;;;5067623;28;20400;-81
2022/03/30 02:18:05;;;;;;;27.25;13.68;;;4.90;99.90;;;;;;5066592;28;20135;-82
2022/03/30 02:20:31;;;;;;;28.70;13.68;;;5.00;99.90;;;;;;5066229;28;20558;-80
2022/03/30 02:22:57;;;;;;;33.42;14.80;;;5.00;99.90;;;;;;5065196;28;20048;-81
2022/03/30 02:25:22;;;;;;;31.30;14.05;;;5.00;99.90;;;;;;5049888;28;20055;-81
2022/03/30 02:27:48;;;;;;;29.83;15.77;;;5.00;99.90;;;;;;5066632;28;20048;-80
2022/03/30 02:30:14;;;;;;;24.70;13.38;;;5.00;99.90;;;;;;5064972;28;20127;-81
2022/03/30 02:32:40;;;;;;;32.25;15.35;;;5.00;99.90;;;;;;5066438;28;20119;-82
2022/03/30 02:35:06;;;;;;;34.25;16.05;;;4.70;99.90;;;;;;5065437;28;20055;-82
2022/03/30 02:37:32;;;;;;;40.30;15.10;;;4.90;99.90;;;;;;5067265;28;20060;-81
2022/03/30 02:39:58;;;;;;;28.55;15.60;;;4.90;99.90;;;;;;5067052;28;20392;-82
2022/03/30 02:42:23;;;;;;;35.40;15.98;;;4.90;99.90;;;;;;5067935;28;20040;-82
2022/03/30 02:44:49;;;;;;;35.85;14.93;;;6.10;99.90;;;;;;5069193;28;20132;-82
2022/03/30 02:47:14;;;;;;;29.63;14.05;;;4.90;99.90;;;;;;5071117;28;20052;-82
2022/03/30 02:49:40;;;;;;;31.55;15.00;;;5.00;99.90;;;;;;5069102;28;20383;-82
2022/03/30 02:52:06;;;;;;;24.85;13.85;;;5.00;99.90;;;;;;5070380;28;20052;-81
2022/03/30 02:54:32;;;;;;;27.02;14.32;;;5.10;99.90;;;;;;5069940;28;20043;-81
2022/03/30 02:56:58;;;;;;;22.90;12.93;;;5.20;99.90;;;;;;5070153;28;20040;-81
2022/03/30 02:59:24;;;;;;;20.90;10.50;;;5.20;99.90;;;;;;5071080;28;20047;-81
2022/03/30 03:01:49;;;;;;;18.70;7.70;;;5.30;99.90;;;;;;5052700;28;20431;-81
2022/03/30 03:04:15;;;;;;;12.65;5.65;;;5.30;99.90;;;;;;5069322;28;20051;-82
2022/03/30 03:06:41;;;;;;;5.72;2.92;;;5.40;99.90;;;;;;5071043;28;20033;-81
2022/03/30 03:09:08;;;;;;;9.07;1.85;;;5.40;99.90;;;;;;5070683;28;20108;-81
2022/03/30 03:11:34;;;;;;;3.38;1.45;;;5.40;99.90;;;;;;5068771;28;20067;-81
2022/03/30 03:14:05;;;;;;;3.90;0.73;;;5.50;99.90;;;;;;5071106;28;20102;-81
2022/03/30 03:16:31;;;;;;;1.33;0.55;;;5.50;99.90;;;;;;5070784;28;20045;-82
2022/03/30 03:18:57;;;;;;;2.17;0.43;;;5.50;99.90;;;;;;5072372;28;20070;-81
2022/03/30 03:21:23;;;;;;;2.88;0.30;;;5.50;99.90;;;;;;5059786;28;20048;-82
2022/03/30 03:23:48;;;;;;;1.98;0.30;;;5.50;99.90;;;;;;5053338;28;20055;-82
2022/03/30 03:26:14;;;;;;;2.28;0.40;;;5.50;99.90;;;;;;5068970;28;20079;-82
2022/03/30 03:28:40;;;;;;;2.22;0.30;;;5.60;99.90;;;;;;5070342;28;20062;-82
2022/03/30 03:31:06;;;;;;;0.10;0.10;;;5.60;99.90;;;;;;5068978;28;20059;-82
2022/03/30 03:33:32;;;;;;;2.75;0.20;;;5.60;99.90;;;;;;5068930;28;20041;-82
2022/03/30 03:35:59;;;;;;;2.30;0.40;;;5.50;99.90;;;;;;5069007;28;20148;-82
2022/03/30 03:38:24;;;;;;;0.73;0.00;;;5.60;99.90;;;;;;5053018;28;20045;-82
2022/03/30 03:40:50;;;;;;;1.13;0.10;;;5.60;99.90;;;;;;5069638;28;20059;-82
2022/03/30 03:43:16;;;;;;;3.55;0.30;;;5.60;99.90;;;;;;5068885;28;20048;-82
2022/03/30 03:45:42;;;;;;;2.00;0.20;;;5.60;99.90;;;;;;5069457;28;20041;-82
2022/03/30 03:48:08;;;;;;;5.97;0.98;;;5.60;99.90;;;;;;5051208;28;20123;-82
2022/03/30 03:50:34;;;;;;;1.50;0.10;;;5.60;99.90;;;;;;5052828;28;20442;-82
2022/03/30 03:53:01;;;;;;;1.92;0.13;;;5.60;99.90;;;;;;5067840;28;20056;-81
2022/03/30 03:55:27;;;;;;;2.28;0.10;;;5.60;99.90;;;;;;5068670;28;20040;-82
2022/03/30 03:57:53;;;;;;;2.25;0.32;;;5.60;99.90;;;;;;5069122;28;20051;-81
2022/03/30 04:00:19;;;;;;;2.15;0.20;;;5.60;99.90;;;;;;5067936;28;20032;-81
2022/03/30 04:02:45;;;;;;;0.50;0.10;;;5.60;99.90;;;;;;5052171;28;20093;-81
2022/03/30 04:05:13;;;;;;;2.60;0.20;;;5.60;99.90;;;;;;5069938;28;20119;-83
2022/03/30 04:07:41;;;;;;;2.85;0.08;;;5.60;99.90;;;;;;5059943;28;20656;-81
2022/03/30 04:10:08;;;;;;;0.10;0.00;;;5.50;99.90;;;;;;5068203;28;20064;-81
2022/03/30 04:12:34;;;;;;;3.00;0.10;;;5.60;99.90;;;;;;5052204;28;20040;-81
2022/03/30 04:14:59;;;;;;;1.08;0.03;;;5.50;99.90;;;;;;5067910;28;20050;-81
2022/03/30 04:17:25;;;;;;;0.70;0.00;;;5.50;99.90;;;;;;5068569;28;20441;-81
2022/03/30 04:19:50;;;;;;;0.45;0.05;;;5.50;99.90;;;;;;5068503;28;20048;-81
2022/03/30 04:22:17;;;;;;;0.73;0.10;;;5.50;99.90;;;;;;5067847;28;20477;-81
2022/03/30 04:24:43;;;;;;;0.98;0.08;;;5.50;99.90;;;;;;5070175;28;20455;-81
2022/03/30 04:27:08;;;;;;;0.30;0.00;;;5.50;99.90;;;;;;5068435;28;20082;-82
2022/03/30 04:29:34;;;;;;;4.00;0.25;;;5.50;99.90;;;;;;5068706;28;20111;-82
2022/03/30 04:32:00;;;;;;;0.70;0.10;;;5.40;99.90;;;;;;5068124;28;20044;-82
2022/03/30 04:34:26;;;;;;;0.63;0.00;;;5.40;99.90;;;;;;5068263;28;20473;-82
2022/03/30 04:36:52;;;;;;;0.35;0.00;;;5.50;99.90;;;;;;5067526;28;20131;-81
2022/03/30 04:39:17;;;;;;;1.25;0.10;;;5.50;99.90;;;;;;5051343;28;20534;-80
2022/03/30 04:41:43;;;;;;;0.28;0.10;;;5.50;99.90;;;;;;5051385;28;20040;-81
2022/03/30 04:44:08;;;;;;;1.15;0.10;;;5.50;99.90;;;;;;5067455;28;20102;-81
2022/03/30 04:46:34;;;;;;;0.93;0.10;;;5.50;99.90;;;;;;5051613;28;20036;-81
2022/03/30 04:48:59;;;;;;;1.85;0.10;;;6.50;99.90;;;;;;5067306;28;20463;-81
2022/03/30 04:51:25;;;;;;;0.77;0.20;;;5.50;99.90;;;;;;5050370;28;20051;-81
2022/03/30 04:53:51;;;;;;;0.28;0.10;;;5.40;99.90;;;;;;5068973;28;20096;-80
2022/03/30 04:56:16;;;;;;;1.85;0.50;;;5.40;99.90;;;;;;5067317;28;20546;-81
2022/03/30 04:58:42;;;;;;;5.57;1.92;;;5.40;99.90;;;;;;5043107;28;20048;-81
2022/03/30 05:01:07;;;;;;;6.55;3.55;;;6.00;99.90;;;;;;5067487;28;20071;-81
2022/03/30 05:03:33;;;;;;;2.40;1.20;;;6.60;99.90;;;;;;5067246;28;20577;-81
2022/03/30 05:05:59;;;;;;;0.95;0.30;;;5.30;99.90;;;;;;5068816;28;20456;-82
2022/03/30 05:08:24;;;;;;;2.38;0.40;;;5.30;99.90;;;;;;5067611;28;20040;-82
2022/03/30 05:10:51;;;;;;;1.63;0.45;;;5.30;99.90;;;;;;5067037;28;20052;-83
2022/03/30 05:13:16;;;;;;;6.47;0.90;;;5.30;99.90;;;;;;5051994;28;20385;-82
2022/03/30 05:15:42;;;;;;;2.53;0.30;;;5.30;99.90;;;;;;5057164;28;20070;-83
2022/03/30 05:18:08;;;;;;;1.02;0.45;;;5.30;99.90;;;;;;5051552;28;20331;-82
2022/03/30 05:20:34;;;;;;;1.83;0.40;;;5.20;99.90;;;;;;5051245;28;20101;-81
2022/03/30 05:22:59;;;;;;;3.38;0.43;;;5.20;99.90;;;;;;5050310;28;20089;-81
2022/03/30 05:25:25;;;;;;;11.70;6.68;;;5.30;99.90;;;;;;5049943;28;20127;-81
2022/03/30 05:27:51;;;;;;;34.20;23.05;;;5.20;99.90;;;;;;5067006;28;20434;-81
2022/03/30 05:30:17;;;;;;;14.07;6.10;;;5.20;99.90;;;;;;5050242;28;20202;-81
2022/03/30 05:32:45;;;;;;;3.65;1.83;;;5.20;99.90;;;;;;5066593;28;20097;-81
2022/03/30 05:35:12;;;;;;;2.30;1.45;;;5.20;99.90;;;;;;5068319;28;20064;-81
2022/03/30 05:37:38;;;;;;;3.80;1.35;;;5.20;99.90;;;;;;5068801;28;20055;-81
2022/03/30 05:40:05;;;;;;;0.98;0.80;;;5.20;99.90;;;;;;5065972;28;20048;-80
2022/03/30 05:42:31;;;;;;;4.97;1.30;;;5.20;99.90;;;;;;5067383;28;20049;-81
2022/03/30 05:44:57;;;;;;;1.30;0.47;;;5.20;99.90;;;;;;5066707;28;20036;-81
2022/03/30 05:47:22;;;;;;;3.33;0.47;;;5.20;99.90;;;;;;5066439;28;20389;-82
2022/03/30 05:49:48;;;;;;;3.88;1.95;;;5.20;99.90;;;;;;5066972;28;20137;-81
2022/03/30 05:52:13;;;;;;;37.63;24.25;;;5.20;99.90;;;;;;5068244;28;20496;-81
2022/03/30 05:54:39;;;;;;;7.68;5.13;;;5.10;99.90;;;;;;5067965;28;20403;-81
2022/03/30 05:57:05;;;;;;;5.05;2.15;;;5.20;99.90;;;;;;5050206;28;20044;-81
2022/03/30 05:59:37;;;;;;;3.05;0.70;;;5.20;99.90;;;;;;5066683;28;20486;-81
2022/03/30 06:02:04;;;;;;;2.30;0.50;;;5.20;99.90;;;;;;5066416;28;20048;-81
2022/03/30 06:04:30;;;;;;;5.45;0.57;;;6.30;99.90;;;;;;5050757;28;20431;-81
2022/03/30 06:06:56;;;;;;;2.83;0.50;;;5.20;99.90;;;;;;5067733;28;20040;-81
2022/03/30 06:09:22;;;;;;;3.00;0.60;;;5.20;99.90;;;;;;5068210;28;20244;-81
2022/03/30 06:11:48;;;;;;;1.52;0.77;;;5.20;99.90;;;;;;5049839;28;20051;-80
2022/03/30 06:14:14;;;;;;;2.95;0.68;;;5.20;99.90;;;;;;5066100;28;20135;-81
2022/03/30 06:16:41;;;;;;;3.13;0.77;;;5.20;99.90;;;;;;5033659;28;20042;-81
2022/03/30 06:19:09;;;;;;;3.33;0.85;;;5.20;99.90;;;;;;5067104;28;20054;-81
2022/03/30 06:21:35;;;;;;;2.67;0.55;;;5.20;99.90;;;;;;5070138;28;20361;-80
2022/03/30 06:24:01;;;;;;;2.80;0.60;;;5.20;99.90;;;;;;5071842;28;20098;-81
2022/03/30 06:26:27;;;;;;;4.05;1.02;;;5.20;99.90;;;;;;5070711;28;20527;-81
2022/03/30 06:28:53;;;;;;;1.95;0.57;;;5.20;99.90;;;;;;5069981;28;20094;-81
2022/03/30 06:31:18;;;;;;;3.58;2.47;;;5.20;99.90;;;;;;5070599;28;20492;-81
2022/03/30 06:33:45;;;;;;;5.63;3.17;;;5.20;99.90;;;;;;5070317;28;20515;-80
2022/03/30 06:36:11;;;;;;;2.47;2.00;;;5.20;99.90;;;;;;5071346;28;20052;-80
2022/03/30 06:38:37;;;;;;;5.65;2.38;;;5.20;99.90;;;;;;5070293;28;20119;-81
2022/03/30 06:41:03;;;;;;;4.97;1.38;;;5.30;99.90;;;;;;5070261;28;20174;-81
2022/03/30 06:43:29;;;;;;;2.13;0.90;;;5.30;99.90;;;;;;5071279;28;20073;-81
2022/03/30 06:45:54;;;;;;;5.18;0.63;;;5.30;99.90;;;;;;5070161;28;20049;-81
2022/03/30 06:48:21;;;;;;;2.83;0.93;;;5.30;99.90;;;;;;5070355;28;20125;-82
2022/03/30 06:50:48;;;;;;;3.30;0.70;;;5.30;99.90;;;;;;5069204;28;20253;-80
2022/03/30 06:53:13;;;;;;;4.60;0.90;;;5.30;99.90;;;;;;5070007;28;20061;-80
2022/03/30 06:55:40;;;;;;;4.20;0.80;;;5.30;99.90;;;;;;5071548;28;20033;-81
2022/03/30 06:58:06;;;;;;;6.05;0.90;;;6.40;99.90;;;;;;5071164;28;20045;-81
2022/03/30 07:00:32;;;;;;;3.25;1.00;;;5.60;99.90;;;;;;5053418;28;20099;-81
2022/03/30 07:02:58;;;;;;;9.88;1.08;;;5.40;99.90;;;;;;5070699;28;20039;-80
2022/03/30 07:05:24;;;;;;;2.75;0.82;;;5.40;99.90;;;;;;5071843;28;20392;-81
2022/03/30 07:10:33;;;;;;;4.95;1.75;;;5.40;99.90;;;;;;5072278;28;20052;-81
2022/03/30 07:13:03;;;;;;;64.75;35.92;;;5.40;99.90;;;;;;5058543;28;20037;-81
2022/03/30 07:15:30;;;;;;;22.35;11.10;;;5.40;99.90;;;;;;5070527;28;20052;-81
2022/03/30 07:17:58;;;;;;;7.47;2.13;;;5.50;99.90;;;;;;5060625;28;20039;-81
2022/03/30 07:20:26;;;;;;;4.78;1.25;;;5.50;99.90;;;;;;5069944;28;20049;-81
2022/03/30 07:22:52;;;;;;;4.60;1.20;;;5.50;99.90;;;;;;5069324;28;20052;-82
2022/03/30 07:25:21;;;;;;;2.42;0.85;;;5.50;99.90;;;;;;5070259;28;20033;-81
2022/03/30 07:27:52;;;;;;;4.65;1.38;;;5.60;99.90;;;;;;5069089;28;20098;-81
2022/03/30 07:30:19;;;;;;;4.03;1.20;;;5.60;99.90;;;;;;5068068;28;20381;-81
2022/03/30 07:32:47;;;;;;;6.97;3.42;;;5.60;99.90;;;;;;5051965;28;20036;-81
2022/03/30 07:35:15;;;;;;;14.73;6.28;;;5.60;99.90;;;;;;5069232;28;20044;-82
2022/03/30 07:37:42;;;;;;;5.68;1.55;;;5.70;99.90;;;;;;5070645;28;20267;-81
2022/03/30 07:40:09;;;;;;;2.58;0.80;;;5.60;99.90;;;;;;5069671;28;20111;-80
2022/03/30 07:42:35;;;;;;;5.88;1.10;;;5.60;99.90;;;;;;5069263;28;20045;-81
2022/03/30 07:45:01;;;;;;;8.63;1.35;;;5.70;99.90;;;;;;5068327;28;20046;-81
2022/03/30 07:47:26;;;;;;;5.32;0.80;;;5.70;99.90;;;;;;5052588;28;20332;-80
2022/03/30 07:49:52;;;;;;;2.80;0.60;;;5.80;99.90;;;;;;5051996;28;20036;-80
2022/03/30 07:52:20;;;;;;;25.20;14.90;;;5.80;99.90;;;;;;5068549;28;20048;-82
2022/03/30 07:54:47;;;;;;;12.27;6.93;;;5.90;99.90;;;;;;5070592;28;20068;-81
2022/03/30 07:57:13;;;;;;;4.50;1.13;;;5.90;99.90;;;;;;5069067;28;20115;-81
2022/03/30 07:59:39;;;;;;;3.33;0.82;;;5.90;99.90;;;;;;5068001;28;20123;-80
2022/03/30 08:02:05;;;;;;;7.57;0.95;;;6.00;99.90;;;;;;5069590;28;20086;-81
2022/03/30 08:04:30;;;;;;;3.70;0.30;;;6.00;99.90;;;;;;5069037;28;20036;-81
2022/03/30 08:06:56;;;;;;;3.45;0.50;;;6.00;99.90;;;;;;5069182;28;20055;-81
2022/03/30 08:09:22;;;;;;;5.85;0.65;;;6.10;99.90;;;;;;5069009;28;20044;-81
2022/03/30 08:11:48;;;;;;;8.18;1.02;;;6.00;99.90;;;;;;5068312;28;20404;-80
2022/03/30 08:14:13;;;;;;;4.82;0.55;;;6.10;99.90;;;;;;5069483;28;20396;-82
2022/03/30 08:16:39;;;;;;;5.18;0.68;;;6.10;99.90;;;;;;5069087;28;20056;-81
2022/03/30 08:19:06;;;;;;;3.88;0.35;;;6.20;99.90;;;;;;5069561;28;20111;-82
2022/03/30 08:24:16;;;;;;;4.35;0.70;;;6.20;99.90;;;;;;5062004;28;20553;-81
2022/03/30 08:26:42;;;;;;;4.60;0.80;;;6.20;99.90;;;;;;5051798;28;20037;-81
2022/03/30 08:29:09;;;;;;;2.88;0.40;;;6.20;99.90;;;;;;5067169;28;20045;-81
2022/03/30 08:31:35;;;;;;;3.83;0.50;;;6.20;99.90;;;;;;5068221;28;20140;-80
2022/03/30 08:34:01;;;;;;;3.30;0.57;;;6.20;99.90;;;;;;5050851;28;20135;-80
2022/03/30 08:36:30;;;;;;;4.47;0.40;;;6.20;99.90;;;;;;5034588;28;20045;-81
2022/03/30 08:39:05;;;;;;;3.60;0.45;;;6.20;99.90;;;;;;5067890;28;20119;-81
2022/03/30 08:41:31;;;;;;;3.47;0.40;;;6.20;99.90;;;;;;5067153;28;20055;-80
2022/03/30 08:43:59;;;;;;;4.95;0.50;;;6.20;99.90;;;;;;5051295;28;20049;-81
2022/03/30 08:46:25;;;;;;;3.72;0.40;;;6.20;99.90;;;;;;5051654;28;20664;-82
2022/03/30 08:48:50;;;;;;;6.07;0.90;;;6.30;99.90;;;;;;5050421;28;20041;-81
2022/03/30 08:51:17;;;;;;;5.65;3.13;;;6.30;99.90;;;;;;5051275;28;20047;-81
2022/03/30 08:53:43;;;;;;;8.00;1.25;;;6.30;99.90;;;;;;5068393;28;20484;-81
2022/03/30 08:56:09;;;;;;;7.93;0.75;;;6.40;99.90;;;;;;5050702;28;20476;-81
2022/03/30 08:58:34;;;;;;;5.18;0.47;;;6.40;99.90;;;;;;5067893;28;20044;-81
2022/03/30 09:01:08;;;;;;;1.13;0.28;;;6.40;99.90;;;;;;5034409;28;20057;-81
2022/03/30 09:03:33;;;;;;;4.83;0.60;;;6.40;99.90;;;;;;5067964;28;20554;-81
2022/03/30 09:06:00;;;;;;;3.50;0.40;;;6.50;99.90;;;;;;5068281;28;20048;-81
2022/03/30 09:08:27;;;;;;;2.67;0.40;;;6.50;99.90;;;;;;5071834;28;20040;-81
2022/03/30 09:10:54;;;;;;;5.00;0.32;;;6.50;99.90;;;;;;5069791;28;20039;-81
2022/03/30 09:13:20;;;;;;;5.55;0.50;;;6.60;99.90;;;;;;5050679;28;20055;-81
2022/03/30 09:15:48;;;;;;;15.73;8.45;;;6.60;99.90;;;;;;5051182;28;20032;-81
2022/03/30 09:18:15;;;;;;;10.30;4.80;;;6.60;99.90;;;;;;5066459;28;20044;-81
2022/03/30 09:20:43;;;;;;;2.42;0.50;;;6.70;99.90;;;;;;5067811;28;20067;-82
2022/03/30 09:23:12;;;;;;;7.57;0.55;;;6.70;99.90;;;;;;5059427;28;20150;-82
2022/03/30 09:25:39;;;;;;;3.67;0.35;;;6.80;99.90;;;;;;5068827;28;20043;-81
2022/03/30 09:28:05;;;;;;;4.68;0.60;;;6.80;99.90;;;;;;5068297;28;20424;-81
2022/03/30 09:30:31;;;;;;;4.07;0.40;;;6.90;99.90;;;;;;5068234;28;20090;-81
2022/03/30 09:32:58;;;;;;;1.85;0.10;;;6.90;99.90;;;;;;5066773;28;20052;-81
2022/03/30 09:35:37;;;;;;;2.70;0.65;;;6.90;99.90;;;;;;5067683;28;20068;-81
2022/03/30 09:38:12;;;;;;;1.65;0.30;;;6.90;99.90;;;;;;5067402;28;20080;-81
2022/03/30 09:40:48;;;;;;;0.70;0.10;;;7.00;99.90;;;;;;5067107;28;20535;-81
2022/03/30 09:43:19;;;;;;;7.57;0.63;;;7.00;99.90;;;;;;5060311;28;20431;-81
2022/03/30 09:45:47;;;;;;;3.80;0.52;;;7.00;99.90;;;;;;5066458;28;20040;-81
2022/03/30 09:48:20;;;;;;;2.75;0.90;;;7.00;99.90;;;;;;5058880;28;20087;-80
2022/03/30 09:50:49;;;;;;;3.22;0.47;;;7.00;99.90;;;;;;5068421;28;20051;-81
2022/03/30 09:53:17;;;;;;;2.67;0.10;;;7.00;99.90;;;;;;5057915;28;20037;-81
2022/03/30 09:55:56;;;;;;;1.30;0.38;;;7.00;99.90;;;;;;5067375;28;20051;-81
2022/03/30 09:58:25;;;;;;;1.63;0.17;;;7.00;99.90;;;;;;5061201;28;20528;-81
2022/03/30 10:01:11;;;;;;;2.15;0.30;;;7.10;99.90;;;;;;5067630;28;20040;-81
2022/03/30 10:03:44;;;;;;;5.18;0.30;;;7.10;99.90;;;;;;5050509;28;20036;-81
2022/03/30 10:06:12;;;;;;;2.38;0.30;;;7.10;99.90;;;;;;5066215;28;20053;-82
2022/03/30 10:08:45;;;;;;;3.00;0.17;;;6.00;99.90;;;;;;5067038;28;20643;-82
2022/03/30 10:11:12;;;;;;;4.20;0.38;;;7.20;99.90;;;;;;5066663;28;20040;-81
2022/03/30 10:13:39;;;;;;;5.50;0.60;;;7.20;99.90;;;;;;5066732;28;20381;-80
2022/03/30 10:16:09;;;;;;;2.33;0.52;;;7.20;99.90;;;;;;5066429;28;20145;-81
2022/03/30 10:18:35;;;;;;;4.80;0.73;;;7.30;99.90;;;;;;5068106;28;20374;-82
2022/03/30 10:21:23;;;;;;;2.90;0.35;;;7.30;99.90;;;;;;5066978;28;20033;-81
2022/03/30 10:24:15;;;;;;;2.00;0.30;;;7.40;99.90;;;;;;5066786;28;20052;-82
2022/03/30 10:27:09;;;;;;;3.65;0.55;;;7.50;99.90;;;;;;5061916;28;20086;-80
2022/03/30 10:29:36;;;;;;;3.75;0.60;;;7.50;99.90;;;;;;5060717;28;20036;-82
2022/03/30 10:32:12;;;;;;;2.00;0.10;;;7.50;99.90;;;;;;5066029;28;20056;-81
2022/03/30 10:35:04;;;;;;;2.50;0.40;;;7.60;99.90;;;;;;5067317;28;20580;-81
2022/03/30 10:37:36;;;;;;;2.30;0.20;;;7.60;99.90;;;;;;5055190;28;20131;-82
2022/03/30 10:40:05;;;;;;;2.85;0.20;;;7.70;99.90;;;;;;5066102;28;20036;-81
2022/03/30 10:42:45;;;;;;;10.88;5.70;;;7.70;99.90;;;;;;5049219;28;20067;-80
2022/03/30 10:45:30;;;;;;;3.70;1.45;;;7.80;99.90;;;;;;5067809;28;20057;-80
2022/03/30 10:48:18;;;;;;;3.72;0.77;;;7.90;99.90;;;;;;5065573;28;20123;-82
2022/03/30 10:50:54;;;;;;;2.50;0.45;;;7.90;99.90;;;;;;5067323;28;20544;-81
2022/03/30 10:53:32;;;;;;;2.20;0.40;;;7.90;99.90;;;;;;5066845;28;20040;-81
2022/03/30 10:56:17;;;;;;;3.20;0.40;;;8.00;99.90;;;;;;5066928;28;20044;-81
2022/03/30 10:58:58;;;;;;;3.50;0.43;;;8.00;99.90;;;;;;5067759;28;20045;-81
2022/03/30 11:01:25;;;;;;;38.15;21.08;;;8.00;99.90;;;;;;5063188;28;20088;-82
2022/03/30 11:04:02;;;;;;;6.68;3.35;;;7.90;99.90;;;;;;5067795;28;20044;-83
2022/03/30 11:06:39;;;;;;;3.53;0.60;;;8.00;99.90;;;;;;5066192;28;20136;-82
2022/03/30 11:09:08;;;;;;;2.25;0.30;;;8.00;99.90;;;;;;5068431;28;20048;-82
2022/03/30 11:11:39;;;;;;;3.60;0.43;;;7.90;99.90;;;;;;5069674;28;20041;-82
2022/03/30 11:14:31;;;;;;;3.05;0.50;;;8.00;99.90;;;;;;5069317;28;20048;-82
2022/03/30 11:16:58;;;;;;;3.22;0.70;;;8.10;99.90;;;;;;5068929;28;20519;-81
2022/03/30 11:19:35;;;;;;;3.25;0.60;;;8.20;99.90;;;;;;5061577;28;20044;-82
2022/03/30 11:22:21;;;;;;;4.40;0.68;;;8.30;99.90;;;;;;5052152;28;20044;-82
2022/03/30 11:25:19;;;;;;;3.40;0.55;;;8.30;99.90;;;;;;5070398;28;20056;-82
2022/03/30 11:28:05;;;;;;;5.85;0.40;;;8.20;99.90;;;;;;5064300;28;20069;-82
2022/03/30 11:30:36;;;;;;;3.05;0.55;;;8.20;99.90;;;;;;5062836;28;20458;-82
2022/03/30 11:33:19;;;;;;;1.35;0.32;;;8.10;99.90;;;;;;5070726;28;20127;-81
2022/03/30 11:35:48;;;;;;;15.68;8.40;;;8.00;99.90;;;;;;5069611;28;20044;-80
2022/03/30 11:38:23;;;;;;;5.18;2.72;;;7.90;99.90;;;;;;5069825;28;20048;-82
2022/03/30 11:40:52;;;;;;;5.72;0.77;;;8.00;99.90;;;;;;5070522;28;20032;-80
2022/03/30 11:43:19;;;;;;;2.38;0.45;;;7.90;99.90;;;;;;5069138;28;20106;-81
2022/03/30 11:45:46;;;;;;;3.58;0.63;;;7.90;99.90;;;;;;5070098;28;20120;-81
2022/03/30 11:48:13;;;;;;;1.30;0.20;;;7.90;99.90;;;;;;5070301;28;20420;-81
2022/03/30 11:50:41;;;;;;;3.42;0.43;;;7.90;99.90;;;;;;5068522;28;20472;-82
2022/03/30 11:53:21;;;;;;;2.88;0.30;;;8.00;99.90;;;;;;5067758;28;20053;-82
2022/03/30 11:55:49;;;;;;;5.13;0.50;;;8.00;99.90;;;;;;5069154;28;20507;-81
2022/03/30 11:58:23;;;;;;;2.85;0.28;;;8.00;99.90;;;;;;5069526;28;20400;-81
2022/03/30 12:00:49;;;;;;;4.13;0.35;;;8.10;99.90;;;;;;5069108;28;20064;-81
2022/03/30 12:03:14;;;;;;;2.42;0.32;;;8.10;99.90;;;;;;5070018;28;20099;-81
2022/03/30 12:05:40;;;;;;;2.47;0.60;;;8.10;99.90;;;;;;5068779;28;20045;-82
2022/03/30 12:08:06;;;;;;;3.50;0.45;;;8.30;99.90;;;;;;5069674;28;20088;-82
2022/03/30 12:10:32;;;;;;;3.60;0.30;;;8.20;99.90;;;;;;5068550;28;20037;-82
2022/03/30 12:12:59;;;;;;;1.33;0.28;;;8.30;99.90;;;;;;5068687;28;20061;-82
2022/03/30 12:15:26;;;;;;;5.95;0.55;;;8.40;99.90;;;;;;5068751;28;20041;-82
2022/03/30 12:17:53;;;;;;;3.33;0.52;;;8.40;99.90;;;;;;5069151;28;20366;-83
2022/03/30 12:20:26;;;;;;;4.68;1.27;;;8.40;99.90;;;;;;5067915;28;20098;-82
2022/03/30 12:23:05;;;;;;;3.10;0.38;;;8.50;99.90;;;;;;5068495;28;20040;-81
2022/03/30 12:25:37;;;;;;;7.53;0.60;;;8.60;99.90;;;;;;5060285;28;20106;-81
2022/03/30 12:28:04;;;;;;;5.38;0.40;;;8.60;99.90;;;;;;5067379;28;20059;-81
2022/03/30 12:30:33;;;;;;;2.88;0.57;;;8.70;99.90;;;;;;5069780;28;20500;-82
2022/03/30 12:32:59;;;;;;;3.35;0.73;;;8.70;99.90;;;;;;5066799;28;20089;-81
2022/03/30 12:35:34;;;;;;;1.85;0.75;;;8.70;99.90;;;;;;5068460;28;20044;-81
2022/03/30 12:38:15;;;;;;;3.45;0.43;;;8.60;99.90;;;;;;5068089;28;20051;-82
2022/03/30 12:40:42;;;;;;;4.32;0.40;;;8.70;99.90;;;;;;5060615;28;20049;-82
2022/03/30 12:43:08;;;;;;;3.60;0.40;;;8.70;99.90;;;;;;5067103;28;20052;-80
2022/03/30 12:45:46;;;;;;;4.63;0.50;;;8.70;99.90;;;;;;5061324;28;20067;-81
2022/03/30 12:48:12;;;;;;;3.33;0.40;;;8.70;99.90;;;;;;5067424;28;20132;-82
2022/03/30 12:50:38;;;;;;;3.50;0.40;;;8.60;99.90;;;;;;5068009;28;20127;-81
2022/03/30 12:53:15;;;;;;;7.80;0.43;;;8.60;99.90;;;;;;5066893;28;20076;-82
2022/03/30 12:55:42;;;;;;;5.43;0.47;;;8.60;99.90;;;;;;5061385;28;20521;-81
2022/03/30 12:58:14;;;;;;;4.00;0.70;;;8.60;99.90;;;;;;5069080;28;20541;-75
2022/03/30 13:01:00;;;;;;;3.50;0.65;;;8.70;99.90;;;;;;5090101;28;20246;-82
2022/03/30 13:03:31;;;;;;;1.75;0.50;;;9.00;99.90;;;;;;5056390;28;20119;-80